createdAt,value
2023-04-23T00:01:17.026Z,101000.09
2023-04-23T00:03:44.867Z,101003.50
2023-04-23T00:06:13.194Z,100984.72
2023-04-23T00:08:41.061Z,100994.00
2023-04-23T00:11:10.026Z,101002.72
2023-04-23T00:13:37.566Z,100994.25
2023-04-23T00:16:05.039Z,100983.34
2023-04-23T00:18:32.045Z,100976.97
2023-04-23T00:20:59.154Z,100974.31
2023-04-23T00:23:25.840Z,100974.84
2023-04-23T00:25:54.033Z,100985.50
2023-04-23T00:28:22.324Z,100982.75
2023-04-23T00:30:49.188Z,100980.97
2023-04-23T00:33:16.953Z,100978.44
2023-04-23T00:35:43.845Z,100982.00
2023-04-23T00:38:10.614Z,100970.22
2023-04-23T00:40:37.303Z,100975.94
2023-04-23T00:43:04.943Z,100974.94
2023-04-23T00:45:31.782Z,100969.13
2023-04-23T00:48:00.212Z,100960.75
2023-04-23T00:50:27.271Z,100954.31
2023-04-23T00:52:54.041Z,100956.09
2023-04-23T00:55:24.142Z,100952.53
2023-04-23T00:57:51.326Z,100949.97
2023-04-23T01:00:18.847Z,100961.28
2023-04-23T01:02:46.005Z,100948.19
2023-04-23T01:05:14.668Z,100941.63
2023-04-23T01:07:43.478Z,100957.66
2023-04-23T01:10:13.229Z,100960.28
2023-04-23T01:12:39.960Z,100953.22
2023-04-23T01:15:08.836Z,100942.13
2023-04-23T01:17:37.275Z,100941.00
2023-04-23T01:20:06.346Z,100931.22
2023-04-23T01:22:35.705Z,100934.56
2023-04-23T01:25:03.850Z,100936.88
2023-04-23T01:27:30.974Z,100912.22
2023-04-23T01:29:58.718Z,100934.16
2023-04-23T01:32:25.629Z,100928.47
2023-04-23T01:34:54.053Z,100914.25
2023-04-23T01:37:21.389Z,100915.66
2023-04-23T01:39:47.942Z,100912.22
2023-04-23T01:42:14.752Z,100909.81
2023-04-23T01:44:41.681Z,100892.63
2023-04-23T01:47:08.763Z,100900.22
2023-04-23T01:49:35.362Z,100908.50
2023-04-23T01:52:02.142Z,100893.84
2023-04-23T01:54:29.308Z,100906.72
2023-04-23T01:56:56.108Z,100906.47
2023-04-23T01:59:23.031Z,100905.88
2023-04-23T02:01:50.466Z,100908.59
2023-04-23T02:04:18.608Z,100900.69
2023-04-23T02:06:51.077Z,100897.03
2023-04-23T02:09:17.898Z,100894.47
2023-04-23T02:11:45.506Z,100877.06
2023-04-23T02:14:12.831Z,100891.56
2023-04-23T02:16:40.706Z,100882.97
2023-04-23T02:19:07.544Z,100882.63
2023-04-23T02:21:34.545Z,100878.03
2023-04-23T02:24:02.418Z,100874.63
2023-04-23T02:26:29.415Z,100874.56
2023-04-23T02:28:56.212Z,100866.72
2023-04-23T02:31:23.002Z,100866.28
2023-04-23T02:33:49.822Z,100844.63
2023-04-23T02:36:16.542Z,100876.41
2023-04-23T02:38:44.961Z,100866.53
2023-04-23T02:41:12.321Z,100865.53
2023-04-23T02:43:38.994Z,100861.88
2023-04-23T02:46:08.726Z,100847.81
2023-04-23T02:48:42.329Z,100862.28
2023-04-23T02:51:11.740Z,100859.72
2023-04-23T02:53:38.328Z,100849.50
2023-04-23T02:56:05.001Z,100861.34
2023-04-23T02:58:32.395Z,100863.47
2023-04-23T03:00:59.842Z,100836.91
2023-04-23T03:03:32.394Z,100863.41
2023-04-23T03:06:01.125Z,100861.59
2023-04-23T03:08:27.842Z,100859.06
2023-04-23T03:10:54.359Z,100864.50
2023-04-23T03:13:21.091Z,100863.06
2023-04-23T03:15:48.118Z,100858.72
2023-04-23T03:18:14.905Z,100834.09
2023-04-23T03:20:42.006Z,100853.59
2023-04-23T03:23:09.845Z,100843.31
2023-04-23T03:25:36.707Z,100847.31
2023-04-23T03:28:03.430Z,100857.59
2023-04-23T03:30:31.246Z,100832.91
2023-04-23T03:32:58.398Z,100849.84
2023-04-23T03:35:26.015Z,100857.34
2023-04-23T03:37:52.769Z,100857.25
2023-04-23T03:40:20.231Z,100848.31
2023-04-23T03:42:47.192Z,100850.09
2023-04-23T03:45:17.510Z,100853.34
2023-04-23T03:47:46.089Z,100843.31
2023-04-23T03:50:13.510Z,100849.84
2023-04-23T03:52:40.467Z,100852.16
2023-04-23T03:55:08.124Z,100846.00
2023-04-23T03:57:38.949Z,100828.13
2023-04-23T04:00:13.981Z,100844.22
2023-04-23T04:02:41.912Z,100831.28
2023-04-23T04:05:11.083Z,100840.06
2023-04-23T04:07:38.089Z,100831.09
2023-04-23T04:10:06.342Z,100841.25
2023-04-23T04:12:35.363Z,100828.72
2023-04-23T04:15:03.296Z,100825.25
2023-04-23T04:17:30.121Z,100821.94
2023-04-23T04:19:59.989Z,100834.88
2023-04-23T04:22:26.761Z,100821.41
2023-04-23T04:24:53.658Z,100805.78
2023-04-23T04:27:20.781Z,100828.50
2023-04-23T04:29:48.629Z,100829.16
2023-04-23T04:32:15.185Z,100838.44
2023-04-23T04:34:42.095Z,100829.94
2023-04-23T04:37:10.950Z,100829.94
2023-04-23T04:39:38.498Z,100824.56
2023-04-23T04:42:06.904Z,100839.88
2023-04-23T04:44:33.366Z,100837.81
2023-04-23T04:46:59.905Z,100834.25
2023-04-23T04:49:27.071Z,100831.34
2023-04-23T04:51:54.384Z,100831.34
2023-04-23T04:54:21.827Z,100827.50
2023-04-23T04:56:48.614Z,100835.97
2023-04-23T04:59:15.488Z,100827.41
2023-04-23T05:01:42.521Z,100831.34
2023-04-23T05:04:09.719Z,100817.78
2023-04-23T05:06:36.984Z,100818.31
2023-04-23T05:09:03.734Z,100828.28
2023-04-23T05:11:30.720Z,100834.72
2023-04-23T05:13:57.205Z,100816.03
2023-04-23T05:16:24.357Z,100821.53
2023-04-23T05:18:52.288Z,100829.09
2023-04-23T05:21:20.285Z,100837.31
2023-04-23T05:23:47.255Z,100839.03
2023-04-23T05:26:13.803Z,100828.19
2023-04-23T05:28:40.540Z,100836.69
2023-04-23T05:31:07.829Z,100832.25
2023-04-23T05:33:46.347Z,100818.38
2023-04-23T05:36:15.828Z,100830.75
2023-04-23T05:38:42.338Z,100832.34
2023-04-23T05:41:09.144Z,100813.00
2023-04-23T05:43:35.751Z,100812.16
2023-04-23T05:46:04.786Z,100825.75
2023-04-23T05:48:31.622Z,100823.22
2023-04-23T05:50:58.694Z,100844.50
2023-04-23T05:53:26.160Z,100845.16
2023-04-23T05:55:52.718Z,100843.09
2023-04-23T05:58:19.570Z,100838.72
2023-04-23T06:00:46.280Z,100844.09
2023-04-23T06:03:12.878Z,100843.72
2023-04-23T06:05:39.825Z,100839.47
2023-04-23T06:08:06.549Z,100823.03
2023-04-23T06:10:33.045Z,100817.63
2023-04-23T06:13:00.007Z,100824.97
2023-04-23T06:15:27.330Z,100824.88
2023-04-23T06:17:55.229Z,100806.44
2023-04-23T06:20:22.466Z,100813.44
2023-04-23T06:22:49.285Z,100814.47
2023-04-23T06:25:16.353Z,100774.88
2023-04-23T06:27:43.088Z,100776.75
2023-04-23T06:30:10.028Z,100816.16
2023-04-23T06:32:37.356Z,100810.56
2023-04-23T06:35:05.716Z,100807.06
2023-04-23T06:37:32.433Z,100791.78
2023-04-23T06:39:59.707Z,100809.41
2023-04-23T06:42:26.954Z,100808.47
2023-04-23T06:44:53.633Z,100801.38
2023-04-23T06:47:23.430Z,100803.28
2023-04-23T06:49:50.337Z,100799.13
2023-04-23T06:52:17.361Z,100814.19
2023-04-23T06:54:44.653Z,100793.56
2023-04-23T06:57:12.105Z,100810.94
2023-04-23T06:59:39.425Z,100812.78
2023-04-23T07:02:08.649Z,100806.69
2023-04-23T07:04:35.397Z,100787.75
2023-04-23T07:07:02.419Z,100797.66
2023-04-23T07:09:29.358Z,100789.59
2023-04-23T07:11:55.959Z,100793.78
2023-04-23T07:14:22.589Z,100785.72
2023-04-23T07:16:49.602Z,100777.00
2023-04-23T07:19:16.224Z,100784.03
2023-04-23T07:21:42.822Z,100762.88
2023-04-23T07:24:09.528Z,100775.63
2023-04-23T07:26:37.417Z,100777.94
2023-04-23T07:29:07.034Z,100781.81
2023-04-23T07:31:35.011Z,100757.03
2023-04-23T07:34:02.196Z,100768.56
2023-04-23T07:36:29.035Z,100786.50
2023-04-23T07:38:55.753Z,100775.38
2023-04-23T07:41:23.632Z,100748.03
2023-04-23T07:43:50.573Z,100762.66
2023-04-23T07:46:17.088Z,100766.50
2023-04-23T07:48:43.739Z,100765.41
2023-04-23T07:51:10.353Z,100765.28
2023-04-23T07:53:37.248Z,100753.06
2023-04-23T07:56:03.977Z,100757.06
2023-04-23T07:58:30.734Z,100738.66
2023-04-23T08:00:58.391Z,100744.97
2023-04-23T08:03:25.007Z,100750.75
2023-04-23T08:05:52.088Z,100732.97
2023-04-23T08:08:19.101Z,100752.56
2023-04-23T08:10:46.417Z,100746.13
2023-04-23T08:13:13.280Z,100743.09
2023-04-23T08:15:39.934Z,100767.16
2023-04-23T08:18:06.857Z,100766.72
2023-04-23T08:20:34.754Z,100768.03
2023-04-23T08:23:01.535Z,100761.13
2023-04-23T08:25:29.432Z,100763.53
2023-04-23T08:27:55.936Z,100751.69
2023-04-23T08:30:22.566Z,100748.63
2023-04-23T08:32:51.400Z,100755.38
2023-04-23T08:35:18.238Z,100752.97
2023-04-23T08:37:52.274Z,100759.13
2023-04-23T08:40:18.967Z,100736.88
2023-04-23T08:42:51.393Z,100753.09
2023-04-23T08:45:18.520Z,100736.38
2023-04-23T08:47:48.312Z,100730.41
2023-04-23T08:50:18.242Z,100737.03
2023-04-23T08:52:52.693Z,100749.31
2023-04-23T08:55:22.070Z,100746.63
2023-04-23T08:57:50.835Z,100741.47
2023-04-23T09:00:20.188Z,100749.81
2023-04-23T09:02:48.580Z,100739.75
2023-04-23T09:05:15.834Z,100734.53
2023-04-23T09:07:43.416Z,100747.09
2023-04-23T09:10:13.700Z,100748.66
2023-04-23T09:12:45.242Z,100730.81
2023-04-23T09:15:14.062Z,100744.34
2023-04-23T09:17:47.109Z,100749.41
2023-04-23T09:20:15.496Z,100746.81
2023-04-23T09:22:46.031Z,100743.34
2023-04-23T09:25:16.303Z,100744.00
2023-04-23T09:27:42.975Z,100735.59
2023-04-23T09:30:11.821Z,100727.66
2023-04-23T09:32:43.786Z,100734.03
2023-04-23T09:35:14.017Z,100734.19
2023-04-23T09:37:48.771Z,100732.22
2023-04-23T09:40:20.582Z,100723.00
2023-04-23T09:42:50.022Z,100705.88
2023-04-23T09:45:18.429Z,100693.63
2023-04-23T09:47:56.269Z,100712.13
2023-04-23T09:50:43.317Z,100718.22
2023-04-23T09:53:10.661Z,100716.31
2023-04-23T09:55:42.830Z,100718.28
2023-04-23T09:58:15.502Z,100714.06
2023-04-23T10:00:42.436Z,100703.38
2023-04-23T10:03:10.376Z,100725.19
2023-04-23T10:08:14.981Z,100709.16
2023-04-23T10:13:14.229Z,100714.50
2023-04-23T10:15:50.242Z,100704.50
2023-04-23T10:18:17.478Z,100691.84
2023-04-23T10:20:46.146Z,100709.44
2023-04-23T10:23:13.948Z,100693.13
2023-04-23T10:25:42.396Z,100689.88
2023-04-23T10:28:11.811Z,100708.47
2023-04-23T10:30:38.878Z,100706.63
2023-04-23T10:33:13.236Z,100697.06
2023-04-23T10:35:47.486Z,100683.53
2023-04-23T10:38:18.974Z,100707.34
2023-04-23T10:40:49.427Z,100695.38
2023-04-23T10:43:16.757Z,100682.13
2023-04-23T10:45:43.777Z,100676.94
2023-04-23T10:48:11.021Z,100682.56
2023-04-23T10:50:39.206Z,100674.25
2023-04-23T10:53:24.227Z,100663.69
2023-04-23T10:55:50.859Z,100668.50
2023-04-23T10:58:17.545Z,100650.59
2023-04-23T11:00:46.436Z,100668.28
2023-04-23T11:03:39.740Z,100652.34
2023-04-23T11:06:09.302Z,100658.69
2023-04-23T11:08:36.339Z,100658.78
2023-04-23T11:11:08.390Z,100646.09
2023-04-23T11:13:50.878Z,100641.34
2023-04-23T11:16:24.187Z,100647.63
2023-04-23T11:19:18.367Z,100639.75
2023-04-23T11:22:01.591Z,100638.06
2023-04-23T11:24:49.564Z,100644.56
2023-04-23T11:27:18.757Z,100640.88
2023-04-23T11:29:46.719Z,100635.63
2023-04-23T11:32:17.017Z,100630.66
2023-04-23T11:34:45.512Z,100625.47
2023-04-23T11:37:13.879Z,100619.41
2023-04-23T11:39:42.065Z,100617.81
2023-04-23T11:42:14.225Z,100623.97
2023-04-23T11:44:42.111Z,100613.50
2023-04-23T11:47:12.522Z,100613.81
2023-04-23T11:49:43.597Z,100607.50
2023-04-23T11:52:11.591Z,100608.50
2023-04-23T11:54:43.734Z,100584.38
2023-04-23T11:57:10.586Z,100598.72
2023-04-23T11:59:37.706Z,100588.09
2023-04-23T12:02:04.538Z,100582.47
2023-04-23T12:04:32.433Z,100575.28
2023-04-23T12:06:59.814Z,100584.50
2023-04-23T12:09:28.754Z,100590.25
2023-04-23T12:11:58.324Z,100575.13
2023-04-23T12:14:31.231Z,100580.38
2023-04-23T12:17:08.881Z,100565.16
2023-04-23T12:19:37.059Z,100548.75
2023-04-23T12:22:08.682Z,100570.19
2023-04-23T12:25:07.864Z,100562.50
2023-04-23T12:27:40.227Z,100559.13
2023-04-23T12:30:08.101Z,100552.09
2023-04-23T12:32:35.339Z,100562.47
2023-04-23T12:35:01.981Z,100545.44
2023-04-23T12:37:31.956Z,100550.59
2023-04-23T12:39:59.921Z,100533.50
2023-04-23T12:42:26.856Z,100525.94
2023-04-23T12:44:56.138Z,100508.00
2023-04-23T12:47:22.790Z,100548.69
2023-04-23T12:49:53.362Z,100535.44
2023-04-23T12:52:20.855Z,100521.66
2023-04-23T12:54:51.769Z,100502.97
2023-04-23T12:57:22.276Z,100520.34
2023-04-23T12:59:49.607Z,100509.38
2023-04-23T13:02:16.327Z,100514.38
2023-04-23T13:04:42.962Z,100491.59
2023-04-23T13:07:10.316Z,100502.16
2023-04-23T13:09:37.179Z,100471.66
2023-04-23T13:12:04.202Z,100477.97
2023-04-23T13:14:32.951Z,100485.84
2023-04-23T13:16:59.768Z,100485.97
2023-04-23T13:19:26.552Z,100498.69
2023-04-23T13:21:53.882Z,100494.22
2023-04-23T13:24:21.486Z,100479.06
2023-04-23T13:26:48.225Z,100455.25
2023-04-23T13:29:15.337Z,100470.88
2023-04-23T13:31:42.000Z,100476.53
2023-04-23T13:34:08.648Z,100464.97
2023-04-23T13:36:35.846Z,100458.69
2023-04-23T13:39:02.572Z,100444.91
2023-04-23T13:41:29.172Z,100453.47
2023-04-23T13:43:55.678Z,100437.28
2023-04-23T13:46:22.456Z,100449.78
2023-04-23T13:48:49.291Z,100444.97
2023-04-23T13:51:32.998Z,100432.66
2023-04-23T13:54:01.711Z,100437.94
2023-04-23T13:56:30.262Z,100436.56
2023-04-23T13:59:18.206Z,100435.97
2023-04-23T14:01:47.369Z,100421.47
2023-04-23T14:04:13.954Z,100428.81
2023-04-23T14:06:41.019Z,100413.06
2023-04-23T14:09:07.537Z,100439.66
2023-04-23T14:11:34.141Z,100455.56
2023-04-23T14:14:01.460Z,100483.44
2023-04-23T14:16:28.306Z,100459.22
2023-04-23T14:18:54.919Z,100451.19
2023-04-23T14:21:22.533Z,100437.91
2023-04-23T14:23:56.952Z,100448.38
2023-04-23T14:29:19.898Z,100448.47
2023-04-23T14:31:46.538Z,100435.66
2023-04-23T14:34:13.160Z,100435.03
2023-04-23T14:36:39.814Z,100432.94
2023-04-23T14:39:06.622Z,100442.06
2023-04-23T14:41:33.448Z,100430.13
2023-04-23T14:44:03.585Z,100422.44
2023-04-23T14:46:30.504Z,100435.94
2023-04-23T14:48:57.460Z,100423.13
2023-04-23T14:51:24.587Z,100424.81
2023-04-23T14:53:51.632Z,100418.16
2023-04-23T14:56:18.551Z,100434.88
2023-04-23T14:58:45.226Z,100408.16
2023-04-23T15:01:12.052Z,100425.94
2023-04-23T15:03:38.966Z,100410.84
2023-04-23T15:06:08.800Z,100391.91
2023-04-23T15:08:36.798Z,100412.72
2023-04-23T15:11:04.952Z,100409.63
2023-04-23T15:13:43.624Z,100422.13
2023-04-23T15:16:26.280Z,100419.22
2023-04-23T15:19:06.382Z,100410.47
2023-04-23T15:21:33.391Z,100405.38
2023-04-23T15:24:00.303Z,100396.94
2023-04-23T15:26:27.895Z,100408.22
2023-04-23T15:28:57.505Z,100422.06
2023-04-23T15:31:24.167Z,100421.81
2023-04-23T15:33:51.149Z,100417.38
2023-04-23T15:36:17.957Z,100443.34
2023-04-23T15:38:44.680Z,100448.00
2023-04-23T15:41:12.751Z,100467.13
2023-04-23T15:43:40.758Z,100468.84
2023-04-23T15:46:07.270Z,100457.25
2023-04-23T15:48:33.862Z,100458.38
2023-04-23T15:51:00.487Z,100441.69
2023-04-23T15:53:28.254Z,100452.69
2023-04-23T15:55:54.801Z,100439.06
2023-04-23T15:58:21.477Z,100448.97
2023-04-23T16:00:48.164Z,100449.69
2023-04-23T16:03:15.536Z,100429.63
2023-04-23T16:05:42.543Z,100444.84
2023-04-23T16:08:09.448Z,100443.53
2023-04-23T16:10:38.052Z,100444.84
2023-04-23T16:13:06.143Z,100439.31
2023-04-23T16:15:32.964Z,100440.75
2023-04-23T16:18:00.332Z,100418.50
2023-04-23T16:20:28.605Z,100426.97
2023-04-23T16:22:55.701Z,100426.47
2023-04-23T16:25:22.369Z,100415.16
2023-04-23T16:27:49.145Z,100406.81
2023-04-23T16:30:16.977Z,100418.63
2023-04-23T16:32:43.642Z,100398.72
2023-04-23T16:35:10.415Z,100406.56
2023-04-23T16:37:37.172Z,100405.59
2023-04-23T16:40:04.738Z,100412.00
2023-04-23T16:42:31.552Z,100402.09
2023-04-23T16:44:58.137Z,100407.53
2023-04-23T16:47:25.170Z,100397.03
2023-04-23T16:49:51.722Z,100390.41
2023-04-23T16:52:18.354Z,100395.47
2023-04-23T16:54:45.427Z,100387.88
2023-04-23T16:57:12.106Z,100381.81
2023-04-23T16:59:41.022Z,100383.50
2023-04-23T17:02:07.892Z,100386.78
2023-04-23T17:04:34.975Z,100373.00
2023-04-23T17:07:01.925Z,100348.63
2023-04-23T17:09:29.824Z,100339.81
2023-04-23T17:11:57.860Z,100353.66
2023-04-23T17:14:24.429Z,100341.00
2023-04-23T17:16:50.988Z,100325.47
2023-04-23T17:19:18.410Z,100311.13
2023-04-23T17:21:44.971Z,100317.13
2023-04-23T17:24:11.919Z,100322.81
2023-04-23T17:26:41.003Z,100311.84
2023-04-23T17:29:07.612Z,100307.41
2023-04-23T17:31:36.128Z,100304.25
2023-04-23T17:34:04.940Z,100313.69
2023-04-23T17:36:31.826Z,100281.53
2023-04-23T17:38:58.883Z,100242.13
2023-04-23T17:41:25.976Z,100293.59
2023-04-23T17:43:53.555Z,100278.78
2023-04-23T17:46:20.668Z,100274.78
2023-04-23T17:48:48.274Z,100287.34
2023-04-23T17:51:15.273Z,100271.41
2023-04-23T17:53:48.709Z,100269.25
2023-04-23T17:56:15.854Z,100257.41
2023-04-23T17:58:42.497Z,100262.25
2023-04-23T18:01:10.170Z,100252.00
2023-04-23T18:03:37.178Z,100245.84
2023-04-23T18:06:04.506Z,100237.16
2023-04-23T18:08:31.305Z,100229.09
2023-04-23T18:10:58.203Z,100201.13
2023-04-23T18:13:25.144Z,100220.03
2023-04-23T18:15:52.007Z,100208.19
2023-04-23T18:18:19.504Z,100203.97
2023-04-23T18:20:48.322Z,100190.97
2023-04-23T18:23:15.131Z,100198.66
2023-04-23T18:25:42.162Z,100194.69
2023-04-23T18:28:09.322Z,100186.16
2023-04-23T18:30:38.275Z,100195.53
2023-04-23T18:33:31.819Z,100193.97
2023-04-23T18:36:04.434Z,100189.53
2023-04-23T18:38:38.756Z,100185.91
2023-04-23T18:41:05.553Z,100177.22
2023-04-23T18:43:33.569Z,100178.94
2023-04-23T18:46:01.063Z,100172.53
2023-04-23T18:48:33.817Z,100190.13
2023-04-23T18:51:15.605Z,100176.63
2023-04-23T18:53:42.864Z,100174.84
2023-04-23T18:56:09.986Z,100167.97
2023-04-23T18:58:36.791Z,100187.50
2023-04-23T19:01:05.212Z,100165.06
2023-04-23T19:03:32.272Z,100170.00
2023-04-23T19:06:07.864Z,100167.84
2023-04-23T19:08:35.677Z,100165.44
2023-04-23T19:11:02.710Z,100171.84
2023-04-23T19:13:29.880Z,100135.69
2023-04-23T19:15:56.969Z,100159.91
2023-04-23T19:18:23.558Z,100164.72
2023-04-23T19:20:51.269Z,100169.31
2023-04-23T19:23:18.382Z,100159.41
2023-04-23T19:25:44.957Z,100158.09
2023-04-23T19:28:11.563Z,100149.56
2023-04-23T19:30:38.281Z,100157.38
2023-04-23T19:33:05.123Z,100148.22
2023-04-23T19:35:31.886Z,100145.81
2023-04-23T19:37:58.858Z,100143.16
2023-04-23T19:40:25.450Z,100143.28
2023-04-23T19:42:51.985Z,100136.66
2023-04-23T19:45:18.624Z,100136.78
2023-04-23T19:47:45.770Z,100138.22
2023-04-23T19:50:14.077Z,100107.84
2023-04-23T19:52:41.489Z,100109.28
2023-04-23T19:55:08.546Z,100111.72
2023-04-23T19:57:35.514Z,100123.53
2023-04-23T20:00:13.526Z,100107.47
2023-04-23T20:02:42.270Z,100108.69
2023-04-23T20:05:10.847Z,100099.31
2023-04-23T20:07:38.637Z,100099.06
2023-04-23T20:10:06.102Z,100061.22
2023-04-23T20:12:35.977Z,100087.09
2023-04-23T20:15:03.458Z,100085.28
2023-04-23T20:17:31.104Z,100075.31
2023-04-23T20:20:01.761Z,100086.88
2023-04-23T20:22:29.893Z,100067.59
2023-04-23T20:24:57.828Z,100087.94
2023-04-23T20:27:24.811Z,100078.06
2023-04-23T20:29:52.506Z,100058.19
2023-04-23T20:32:19.208Z,100050.09
2023-04-23T20:34:46.215Z,100069.72
2023-04-23T20:37:13.600Z,100053.13
2023-04-23T20:39:40.444Z,100055.41
2023-04-23T20:42:08.726Z,100049.84
2023-04-23T20:44:35.320Z,100070.47
2023-04-23T20:47:05.730Z,100043.13
2023-04-23T20:49:32.679Z,100040.34
2023-04-23T20:52:00.041Z,100032.28
2023-04-23T20:54:29.764Z,100047.69
2023-04-23T20:56:57.712Z,100038.06
2023-04-23T20:59:24.281Z,100036.47
2023-04-23T21:01:51.204Z,100040.78
2023-04-23T21:04:18.180Z,100018.78
2023-04-23T21:06:49.383Z,100026.94
2023-04-23T21:09:16.650Z,100029.72
2023-04-23T21:11:43.789Z,100031.28
2023-04-23T21:14:11.245Z,100015.75
2023-04-23T21:16:38.463Z,100010.44
2023-04-23T21:19:06.137Z,100016.00
2023-04-23T21:21:33.094Z,100018.91
2023-04-23T21:24:01.071Z,99989.16
2023-04-23T21:26:29.632Z,99990.31
2023-04-23T21:28:58.641Z,100010.56
2023-04-23T21:31:46.886Z,100007.31
2023-04-23T21:34:15.158Z,99992.72
2023-04-23T21:36:42.060Z,99998.03
2023-04-23T21:39:09.029Z,99987.56
2023-04-23T21:41:36.848Z,99991.53
2023-04-23T21:44:03.499Z,99983.00
2023-04-23T21:46:32.069Z,99996.72
2023-04-23T21:48:59.020Z,99999.25
2023-04-23T21:51:28.905Z,99988.31
2023-04-23T21:53:56.940Z,99992.50
2023-04-23T21:56:23.762Z,99978.91
2023-04-23T21:58:50.567Z,99985.91
2023-04-23T22:01:18.214Z,99981.31
2023-04-23T22:03:46.569Z,99980.00
2023-04-23T22:06:16.095Z,99974.47
2023-04-23T22:08:44.855Z,99972.19
2023-04-23T22:11:12.141Z,99977.50
2023-04-23T22:13:38.838Z,99981.44
2023-04-23T22:16:10.846Z,99985.41
2023-04-23T22:18:44.787Z,99979.63
2023-04-23T22:21:11.862Z,99970.00
2023-04-23T22:23:38.616Z,99974.34
2023-04-23T22:26:05.288Z,99956.66
2023-04-23T22:28:32.793Z,99982.03
2023-04-23T22:31:01.364Z,99971.81
2023-04-23T22:33:28.439Z,99974.47
2023-04-23T22:35:55.030Z,99962.94
2023-04-23T22:38:22.050Z,99972.19
2023-04-23T22:40:49.121Z,99966.41
2023-04-23T22:43:15.944Z,99955.59
2023-04-23T22:45:42.466Z,99949.72
2023-04-23T22:48:12.096Z,99964.66
2023-04-23T22:50:40.276Z,99954.44
2023-04-23T22:53:07.811Z,99945.91
2023-04-23T22:55:34.657Z,99965.63
2023-04-23T22:58:01.321Z,99949.63
2023-04-23T23:00:27.897Z,99958.91
2023-04-23T23:02:54.582Z,99967.69
2023-04-23T23:05:21.221Z,99976.72
2023-04-23T23:07:48.267Z,99975.53
2023-04-23T23:10:14.911Z,99963.72
2023-04-23T23:12:41.805Z,99968.78
2023-04-23T23:15:08.884Z,99968.06
2023-04-23T23:17:37.076Z,99969.63
2023-04-23T23:20:08.728Z,99956.16
2023-04-23T23:22:36.218Z,99965.78
2023-04-23T23:25:03.028Z,99955.06
2023-04-23T23:27:29.798Z,99955.53
2023-04-23T23:29:57.934Z,99956.75
2023-04-23T23:32:24.509Z,99948.31
2023-04-23T23:34:51.587Z,99957.56
2023-04-23T23:37:19.962Z,99967.09
2023-04-23T23:39:46.503Z,99963.72
2023-04-23T23:42:13.132Z,99965.41
2023-04-23T23:44:39.703Z,99964.56
2023-04-23T23:47:06.531Z,99963.00
2023-04-23T23:49:33.142Z,99964.44
2023-04-23T23:51:59.953Z,99976.47
2023-04-23T23:54:26.775Z,99945.28
2023-04-23T23:56:53.374Z,99953.72
2023-04-23T23:59:20.010Z,99961.19
